createdAt,value
2023-03-26T00:01:26.478Z,98936.09
2023-03-26T00:03:57.361Z,98928.91
2023-03-26T00:06:27.923Z,98932.31
2023-03-26T00:08:57.100Z,98929.75
2023-03-26T00:11:26.037Z,98935.72
2023-03-26T00:13:56.842Z,98934.22
2023-03-26T00:16:27.620Z,98940.56
2023-03-26T00:18:55.188Z,98943.22
2023-03-26T00:21:27.605Z,98945.72
2023-03-26T00:23:55.218Z,98949.41
2023-03-26T00:26:23.981Z,98936.91
2023-03-26T00:28:51.812Z,98945.81
2023-03-26T00:31:19.590Z,98946.78
2023-03-26T00:33:48.474Z,98943.06
2023-03-26T00:36:17.533Z,98946.59
2023-03-26T00:38:46.890Z,98954.53
2023-03-26T00:41:23.164Z,98953.56
2023-03-26T00:43:51.944Z,98954.69
2023-03-26T00:46:19.585Z,98962.84
2023-03-26T00:48:48.614Z,98955.59
2023-03-26T00:51:16.876Z,98969.72
2023-03-26T00:53:45.404Z,98946.69
2023-03-26T00:56:13.357Z,98947.56
2023-03-26T00:58:41.409Z,98947.22
2023-03-26T01:01:10.803Z,98938.69
2023-03-26T01:03:39.214Z,98949.28
2023-03-26T01:06:09.972Z,98946.28
2023-03-26T01:08:39.650Z,98945.66
2023-03-26T01:11:14.304Z,98950.75
2023-03-26T01:13:45.812Z,98948.09
2023-03-26T01:16:20.361Z,98949.78
2023-03-26T01:18:49.337Z,98949.81
2023-03-26T01:21:23.110Z,98959.84
2023-03-26T01:23:59.693Z,98959.66
2023-03-26T01:26:55.765Z,98953.56
2023-03-26T01:29:30.714Z,98967.56
2023-03-26T01:32:04.564Z,98976.69
2023-03-26T01:34:40.852Z,98961.72
2023-03-26T01:37:14.484Z,98958.97
2023-03-26T01:39:53.301Z,98964.78
2023-03-26T01:42:28.582Z,98959.06
2023-03-26T01:44:59.323Z,98958.22
2023-03-26T01:47:27.135Z,98956.41
2023-03-26T01:49:54.778Z,98961.31
2023-03-26T01:52:26.081Z,98968.16
2023-03-26T01:54:55.713Z,98965.03
2023-03-26T01:57:31.176Z,98950.16
2023-03-26T02:00:11.666Z,98963.88
2023-03-26T02:02:45.825Z,98958.75
2023-03-26T02:05:17.083Z,98964.16
2023-03-26T02:07:47.851Z,98959.66
2023-03-26T02:10:18.571Z,98966.81
2023-03-26T02:12:46.093Z,98970.59
2023-03-26T02:15:13.965Z,98964.56
2023-03-26T02:17:41.630Z,98966.84
2023-03-26T02:20:10.875Z,98969.56
2023-03-26T02:22:40.910Z,98975.53
2023-03-26T02:25:10.303Z,98973.06
2023-03-26T02:27:39.519Z,98972.41
2023-03-26T02:30:09.450Z,98967.84
2023-03-26T02:32:38.795Z,98972.53
2023-03-26T02:35:07.615Z,98970.75
2023-03-26T02:37:35.159Z,98972.56
2023-03-26T02:40:05.524Z,98968.31
2023-03-26T02:42:33.030Z,98976.31
2023-03-26T02:45:01.858Z,98960.63
2023-03-26T02:47:29.365Z,98961.59
2023-03-26T02:49:56.869Z,98966.00
2023-03-26T02:52:24.347Z,98964.94
2023-03-26T02:54:51.966Z,98967.38
2023-03-26T02:57:19.451Z,98975.09
2023-03-26T02:59:47.229Z,98969.41
2023-03-26T03:02:16.067Z,98970.44
2023-03-26T03:04:44.016Z,98970.88
2023-03-26T03:07:14.378Z,98968.78
2023-03-26T03:09:42.050Z,98974.25
2023-03-26T03:12:09.567Z,98969.09
2023-03-26T03:14:37.770Z,98974.56
2023-03-26T03:17:05.292Z,98971.88
2023-03-26T03:19:34.167Z,98969.53
2023-03-26T03:22:01.776Z,98963.19
2023-03-26T03:24:29.313Z,98969.44
2023-03-26T03:26:57.966Z,98956.28
2023-03-26T03:29:25.467Z,98964.34
2023-03-26T03:31:52.962Z,98953.81
2023-03-26T03:34:21.598Z,98962.53
2023-03-26T03:36:50.468Z,98963.34
2023-03-26T03:39:17.950Z,98969.94
2023-03-26T03:41:45.486Z,98974.69
2023-03-26T03:44:12.986Z,98976.38
2023-03-26T03:46:40.724Z,98966.28
2023-03-26T03:49:08.202Z,98974.19
2023-03-26T03:51:36.069Z,98977.16
2023-03-26T03:54:05.093Z,98974.69
2023-03-26T03:56:32.668Z,98981.53
2023-03-26T03:59:00.173Z,98982.41
2023-03-26T04:01:30.635Z,98982.66
2023-03-26T04:03:58.307Z,98986.69
2023-03-26T04:06:30.215Z,98983.31
2023-03-26T04:08:58.038Z,98986.84
2023-03-26T04:11:26.845Z,98984.03
2023-03-26T04:13:54.328Z,98983.34
2023-03-26T04:16:21.884Z,98987.06
2023-03-26T04:18:49.467Z,98985.34
2023-03-26T04:21:16.955Z,98988.50
2023-03-26T04:23:44.441Z,98997.19
2023-03-26T04:26:16.223Z,98985.13
2023-03-26T04:28:46.896Z,98987.34
2023-03-26T04:31:17.053Z,98989.06
2023-03-26T04:33:47.291Z,98987.22
2023-03-26T04:36:15.962Z,98985.41
2023-03-26T04:38:46.140Z,98978.34
2023-03-26T04:43:47.459Z,98982.25
2023-03-26T04:46:18.431Z,98989.91
2023-03-26T04:48:46.090Z,98983.94
2023-03-26T04:51:17.967Z,98990.09
2023-03-26T04:53:48.813Z,98991.03
2023-03-26T04:56:24.560Z,98992.03
2023-03-26T04:58:52.165Z,98987.84
2023-03-26T05:01:21.574Z,98984.06
2023-03-26T05:03:49.129Z,98984.78
2023-03-26T05:06:17.681Z,98981.19
2023-03-26T05:08:45.287Z,98980.25
2023-03-26T05:11:12.840Z,98986.41
2023-03-26T05:13:42.775Z,98977.56
2023-03-26T05:16:11.144Z,98980.16
2023-03-26T05:18:40.303Z,98981.91
2023-03-26T05:21:08.186Z,98979.91
2023-03-26T05:23:35.647Z,98978.16
2023-03-26T05:26:03.144Z,98985.19
2023-03-26T05:28:30.686Z,98981.59
2023-03-26T05:30:58.566Z,98984.34
2023-03-26T05:33:26.120Z,98984.47
2023-03-26T05:36:02.087Z,98979.09
2023-03-26T05:38:29.992Z,98980.66
2023-03-26T05:41:00.635Z,98982.47
2023-03-26T05:43:28.153Z,98977.16
2023-03-26T05:45:55.720Z,98983.34
2023-03-26T05:48:23.374Z,98980.69
2023-03-26T05:50:51.902Z,98975.16
2023-03-26T05:53:21.849Z,98977.72
2023-03-26T05:55:50.487Z,98975.88
2023-03-26T05:58:17.987Z,98972.41
2023-03-26T06:00:48.854Z,98966.88
2023-03-26T06:03:16.576Z,98969.66
2023-03-26T06:05:44.451Z,98973.84
2023-03-26T06:08:12.171Z,98966.63
2023-03-26T06:10:41.359Z,98969.25
2023-03-26T06:13:08.903Z,98977.06
2023-03-26T06:15:36.415Z,98960.22
2023-03-26T06:18:04.105Z,98965.56
2023-03-26T06:20:31.794Z,98963.84
2023-03-26T06:22:59.248Z,98962.59
2023-03-26T06:25:26.748Z,98960.66
2023-03-26T06:27:55.696Z,98956.91
2023-03-26T06:30:23.255Z,98957.06
2023-03-26T06:32:50.966Z,98958.38
2023-03-26T06:35:18.600Z,98953.44
2023-03-26T06:37:46.289Z,98953.78
2023-03-26T06:40:15.510Z,98955.25
2023-03-26T06:43:07.684Z,98950.63
2023-03-26T06:45:33.570Z,98957.75
2023-03-26T06:48:01.261Z,98962.81
2023-03-26T06:50:29.179Z,98961.09
2023-03-26T06:52:57.401Z,98958.19
2023-03-26T06:55:25.918Z,98967.66
2023-03-26T06:57:54.595Z,98961.50
2023-03-26T07:00:23.121Z,98969.69
2023-03-26T07:02:51.923Z,98961.75
2023-03-26T07:05:19.513Z,98963.03
2023-03-26T07:07:47.245Z,98953.00
2023-03-26T07:10:15.382Z,98955.53
2023-03-26T07:12:43.932Z,98959.34
2023-03-26T07:15:11.972Z,98959.16
2023-03-26T07:17:39.683Z,98955.13
2023-03-26T07:20:12.849Z,98950.56
2023-03-26T07:22:41.109Z,98947.38
2023-03-26T07:25:10.329Z,98948.31
2023-03-26T07:27:43.684Z,98945.25
2023-03-26T07:30:13.798Z,98953.00
2023-03-26T07:32:48.385Z,98946.44
2023-03-26T07:35:21.863Z,98944.97
2023-03-26T07:37:55.796Z,98946.94
2023-03-26T07:40:38.915Z,98946.69
2023-03-26T07:43:08.069Z,98937.28
2023-03-26T07:45:39.600Z,98940.53
2023-03-26T07:48:11.889Z,98935.03
2023-03-26T07:50:41.356Z,98934.94
2023-03-26T07:53:09.384Z,98931.16
2023-03-26T07:55:42.329Z,98935.47
2023-03-26T07:58:12.667Z,98936.41
2023-03-26T08:00:43.064Z,98936.13
2023-03-26T08:03:29.525Z,98934.31
2023-03-26T08:06:06.706Z,98928.88
2023-03-26T08:08:39.813Z,98925.22
2023-03-26T08:11:16.007Z,98923.44
2023-03-26T08:13:56.872Z,98924.03
2023-03-26T08:16:29.326Z,98919.53
2023-03-26T08:19:02.945Z,98918.28
2023-03-26T08:21:36.591Z,98915.47
2023-03-26T08:24:09.472Z,98906.84
2023-03-26T08:26:38.595Z,98921.63
2023-03-26T08:29:11.968Z,98917.41
2023-03-26T08:31:41.354Z,98913.16
2023-03-26T08:34:11.378Z,98918.13
2023-03-26T08:36:40.808Z,98910.53
2023-03-26T08:39:08.918Z,98908.28
2023-03-26T08:42:05.614Z,98909.19
2023-03-26T08:44:49.757Z,98907.38
2023-03-26T08:47:56.982Z,98905.56
2023-03-26T08:51:01.519Z,98903.41
2023-03-26T08:53:59.385Z,98898.28
2023-03-26T08:56:30.709Z,98899.41
2023-03-26T08:59:20.043Z,98907.41
2023-03-26T09:02:06.059Z,98909.94
2023-03-26T09:04:48.668Z,98905.78
2023-03-26T09:07:48.988Z,98910.81
2023-03-26T09:10:54.688Z,98902.78
2023-03-26T09:13:38.574Z,98905.81
2023-03-26T09:16:43.144Z,98908.28
2023-03-26T09:20:01.378Z,98904.00
2023-03-26T09:22:53.942Z,98906.75
2023-03-26T09:25:55.875Z,98905.31
2023-03-26T09:28:59.890Z,98913.22
2023-03-26T09:31:59.440Z,98913.41
2023-03-26T09:34:31.770Z,98901.78
2023-03-26T09:37:14.905Z,98904.13
2023-03-26T09:39:50.923Z,98901.13
2023-03-26T09:42:25.376Z,98901.94
2023-03-26T09:45:22.593Z,98903.38
2023-03-26T09:48:35.908Z,98904.13
2023-03-26T09:51:15.531Z,98902.09
2023-03-26T09:53:58.195Z,98906.66
2023-03-26T09:56:33.229Z,98898.56
2023-03-26T09:59:26.342Z,98895.03
2023-03-26T10:02:00.821Z,98896.50
2023-03-26T10:04:40.377Z,98883.78
2023-03-26T10:07:14.944Z,98886.72
2023-03-26T10:09:51.065Z,98879.31
2023-03-26T10:12:27.886Z,98878.22
2023-03-26T10:15:06.856Z,98875.72
2023-03-26T10:17:53.508Z,98876.63
2023-03-26T10:20:32.475Z,98876.56
2023-03-26T10:23:09.133Z,98857.59
2023-03-26T10:25:44.172Z,98859.75
2023-03-26T10:28:27.345Z,98853.16
2023-03-26T10:31:07.346Z,98842.91
2023-03-26T10:33:41.717Z,98837.41
2023-03-26T10:36:20.172Z,98836.41
2023-03-26T10:38:58.728Z,98834.75
2023-03-26T10:41:31.577Z,98832.81
2023-03-26T10:44:10.214Z,98833.09
2023-03-26T10:46:52.289Z,98832.41
2023-03-26T10:49:50.772Z,98835.13
2023-03-26T10:52:21.467Z,98837.34
2023-03-26T10:54:55.936Z,98834.19
2023-03-26T10:57:38.525Z,98833.97
2023-03-26T11:00:16.041Z,98832.56
2023-03-26T11:02:48.756Z,98838.00
2023-03-26T11:05:21.150Z,98840.28
2023-03-26T11:07:53.753Z,98824.44
2023-03-26T11:10:26.358Z,98830.94
2023-03-26T11:12:56.927Z,98824.41
2023-03-26T11:15:27.987Z,98824.72
2023-03-26T11:18:06.345Z,98825.25
2023-03-26T11:20:38.731Z,98821.56
2023-03-26T11:23:21.539Z,98825.75
2023-03-26T11:25:59.045Z,98827.59
2023-03-26T11:28:39.447Z,98837.13
2023-03-26T11:31:14.749Z,98827.44
2023-03-26T11:33:46.382Z,98825.25
2023-03-26T11:36:17.596Z,98819.66
2023-03-26T11:38:47.465Z,98816.00
2023-03-26T11:41:22.568Z,98818.31
2023-03-26T11:43:53.304Z,98809.31
2023-03-26T11:46:23.576Z,98815.88
2023-03-26T11:48:54.971Z,98811.34
2023-03-26T11:51:26.561Z,98813.75
2023-03-26T11:53:54.519Z,98806.78
2023-03-26T11:56:28.217Z,98808.34
2023-03-26T11:59:01.149Z,98813.13
2023-03-26T12:01:30.928Z,98818.16
2023-03-26T12:04:06.950Z,98804.56
2023-03-26T12:06:34.446Z,98802.28
2023-03-26T12:09:01.900Z,98809.34
2023-03-26T12:11:35.256Z,98813.75
2023-03-26T12:14:05.391Z,98810.69
2023-03-26T12:16:32.937Z,98806.63
2023-03-26T12:19:06.211Z,98804.38
2023-03-26T12:21:46.058Z,98805.88
2023-03-26T12:24:29.246Z,98802.47
2023-03-26T12:27:02.116Z,98804.63
2023-03-26T12:29:34.113Z,98800.06
2023-03-26T12:32:07.960Z,98803.63
2023-03-26T12:34:39.377Z,98802.16
2023-03-26T12:37:08.858Z,98797.16
2023-03-26T12:40:07.500Z,98795.50
2023-03-26T12:44:48.181Z,98799.31
2023-03-26T12:45:16.821Z,98791.97
2023-03-26T12:47:58.101Z,98795.38
2023-03-26T12:50:39.416Z,98791.72
2023-03-26T12:53:19.444Z,98797.38
2023-03-26T12:55:56.032Z,98797.25
2023-03-26T12:58:38.220Z,98801.75
2023-03-26T13:01:15.907Z,98800.28
2023-03-26T13:03:55.998Z,98795.00
2023-03-26T13:06:33.613Z,98796.78
2023-03-26T13:09:44.471Z,98789.13
2023-03-26T13:12:23.020Z,98797.88
2023-03-26T13:15:04.883Z,98794.13
2023-03-26T13:17:35.676Z,98794.00
2023-03-26T13:20:08.061Z,98788.19
2023-03-26T13:22:42.902Z,98784.81
2023-03-26T13:25:22.069Z,98777.53
2023-03-26T13:27:56.254Z,98766.56
2023-03-26T13:30:31.130Z,98768.41
2023-03-26T13:33:08.385Z,98771.06
2023-03-26T13:35:41.072Z,98765.25
2023-03-26T13:38:11.952Z,98766.50
2023-03-26T13:40:47.836Z,98757.56
2023-03-26T13:43:24.257Z,98761.78
2023-03-26T13:45:57.260Z,98751.19
2023-03-26T13:48:27.327Z,98747.41
2023-03-26T13:51:00.708Z,98744.97
2023-03-26T13:53:35.589Z,98749.84
2023-03-26T13:56:03.176Z,98745.69
2023-03-26T13:58:36.246Z,98746.50
2023-03-26T14:01:09.264Z,98746.66
2023-03-26T14:03:45.540Z,98735.88
2023-03-26T14:06:30.710Z,98741.19
2023-03-26T14:09:04.827Z,98743.81
2023-03-26T14:11:39.248Z,98736.25
2023-03-26T14:14:08.649Z,98736.22
2023-03-26T14:16:39.376Z,98741.75
2023-03-26T14:19:24.757Z,98734.84
2023-03-26T14:22:02.615Z,98739.31
2023-03-26T14:24:58.106Z,98735.59
2023-03-26T14:27:34.832Z,98735.34
2023-03-26T14:30:21.716Z,98744.22
2023-03-26T14:33:03.138Z,98740.72
2023-03-26T14:35:37.766Z,98733.28
2023-03-26T14:38:33.914Z,98745.69
2023-03-26T14:41:17.220Z,98737.16
2023-03-26T14:44:00.882Z,98733.88
2023-03-26T14:46:37.714Z,98736.53
2023-03-26T14:49:36.131Z,98733.28
2023-03-26T14:52:07.207Z,98726.59
2023-03-26T14:54:38.468Z,98731.34
2023-03-26T14:57:22.471Z,98732.19
2023-03-26T15:00:27.083Z,98733.44
2023-03-26T15:03:34.432Z,98728.81
2023-03-26T15:06:39.489Z,98732.81
2023-03-26T15:09:58.759Z,98736.97
2023-03-26T15:12:38.257Z,98735.78
2023-03-26T15:15:38.230Z,98731.81
2023-03-26T15:18:46.337Z,98739.09
2023-03-26T15:21:55.472Z,98738.34
2023-03-26T15:24:48.860Z,98730.59
2023-03-26T15:27:39.351Z,98742.31
2023-03-26T15:30:28.540Z,98737.59
2023-03-26T15:33:24.952Z,98736.75
2023-03-26T15:36:24.909Z,98736.47
2023-03-26T15:39:18.423Z,98739.69
2023-03-26T15:41:53.586Z,98735.72
2023-03-26T15:44:50.920Z,98738.53
2023-03-26T15:47:36.185Z,98744.78
2023-03-26T15:50:14.562Z,98747.84
2023-03-26T15:52:48.892Z,98745.13
2023-03-26T15:55:28.100Z,98747.66
2023-03-26T15:57:58.020Z,98752.13
2023-03-26T16:00:32.196Z,98747.84
2023-03-26T16:03:31.073Z,98744.88
2023-03-26T16:06:14.310Z,98746.97
2023-03-26T16:08:47.236Z,98745.97
2023-03-26T16:11:15.521Z,98743.53
2023-03-26T16:13:45.246Z,98749.03
2023-03-26T16:16:24.154Z,98751.44
2023-03-26T16:18:58.352Z,98747.25
2023-03-26T16:21:55.634Z,98749.66
2023-03-26T16:24:30.423Z,98757.47
2023-03-26T16:27:34.095Z,98750.75
2023-03-26T16:30:30.438Z,98759.41
2023-03-26T16:33:09.909Z,98758.38
2023-03-26T16:35:57.171Z,98757.94
2023-03-26T16:38:27.346Z,98768.44
2023-03-26T16:41:02.814Z,98765.44
2023-03-26T16:43:42.374Z,98766.75
2023-03-26T16:46:28.173Z,98778.00
2023-03-26T16:49:01.611Z,98778.16
2023-03-26T16:51:42.314Z,98775.50
2023-03-26T16:54:18.312Z,98778.00
2023-03-26T16:56:50.052Z,98786.50
2023-03-26T16:59:40.053Z,98782.47
2023-03-26T17:02:17.977Z,98786.38
2023-03-26T17:04:49.575Z,98797.34
2023-03-26T17:07:21.018Z,98798.00
2023-03-26T17:09:56.820Z,98788.69
2023-03-26T17:12:32.889Z,98787.91
2023-03-26T17:15:13.240Z,98795.72
2023-03-26T17:17:51.196Z,98795.44
2023-03-26T17:20:33.462Z,98811.22
2023-03-26T17:23:15.102Z,98807.69
2023-03-26T17:25:47.062Z,98813.13
2023-03-26T17:28:32.212Z,98825.09
2023-03-26T17:31:04.440Z,98816.94
2023-03-26T17:33:34.736Z,98822.56
2023-03-26T17:36:22.118Z,98829.22
2023-03-26T17:39:00.783Z,98825.47
2023-03-26T17:41:51.415Z,98836.06
2023-03-26T17:44:37.678Z,98839.63
2023-03-26T17:47:07.592Z,98844.19
2023-03-26T17:49:36.450Z,98840.69
2023-03-26T17:52:16.896Z,98848.22
2023-03-26T17:54:46.426Z,98849.00
2023-03-26T17:57:16.257Z,98850.91
2023-03-26T17:59:44.581Z,98857.59
2023-03-26T18:02:15.282Z,98862.94
2023-03-26T18:04:45.687Z,98862.34
2023-03-26T18:07:30.538Z,98865.09
2023-03-26T18:10:12.831Z,98865.50
2023-03-26T18:13:06.323Z,98868.81
2023-03-26T18:15:52.638Z,98869.75
2023-03-26T18:18:22.926Z,98865.38
2023-03-26T18:20:51.262Z,98878.41
2023-03-26T18:23:24.971Z,98875.88
2023-03-26T18:25:58.827Z,98874.25
2023-03-26T18:28:31.879Z,98885.41
2023-03-26T18:31:09.586Z,98879.75
2023-03-26T18:33:44.575Z,98881.44
2023-03-26T18:36:13.358Z,98883.69
2023-03-26T18:38:43.051Z,98883.72
2023-03-26T18:41:18.316Z,98886.13
2023-03-26T18:43:45.913Z,98890.44
2023-03-26T18:46:14.424Z,98893.69
2023-03-26T18:48:42.220Z,98897.47
2023-03-26T18:51:09.975Z,98890.50
2023-03-26T18:53:40.269Z,98894.28
2023-03-26T18:56:25.990Z,98900.97
2023-03-26T18:58:53.713Z,98901.78
2023-03-26T19:01:25.756Z,98905.69
2023-03-26T19:03:54.473Z,98906.34
2023-03-26T19:06:23.287Z,98912.91
2023-03-26T19:08:51.129Z,98898.97
2023-03-26T19:11:20.239Z,98914.88
2023-03-26T19:13:59.067Z,98911.31
2023-03-26T19:16:33.785Z,98913.28
2023-03-26T19:19:02.490Z,98920.97
2023-03-26T19:21:30.274Z,98919.06
2023-03-26T19:23:57.999Z,98918.22
2023-03-26T19:26:27.507Z,98919.84
2023-03-26T19:28:57.578Z,98923.31
2023-03-26T19:31:27.822Z,98928.31
2023-03-26T19:33:57.697Z,98933.41
2023-03-26T19:36:28.236Z,98932.41
2023-03-26T19:39:04.838Z,98931.13
2023-03-26T19:41:37.057Z,98935.75
2023-03-26T19:44:07.836Z,98930.44
2023-03-26T19:46:53.283Z,98929.66
2023-03-26T19:49:29.683Z,98947.38
2023-03-26T19:52:12.640Z,98945.38
2023-03-26T19:55:00.346Z,98945.16
2023-03-26T19:57:30.950Z,98941.63
2023-03-26T19:59:58.675Z,98949.78
2023-03-26T20:02:27.167Z,98956.00
2023-03-26T20:04:55.031Z,98948.97
2023-03-26T20:07:35.026Z,98952.78
2023-03-26T20:10:04.159Z,98961.97
2023-03-26T20:12:32.963Z,98966.22
2023-03-26T20:15:01.699Z,98958.75
2023-03-26T20:17:30.774Z,98965.19
2023-03-26T20:19:58.882Z,98964.22
2023-03-26T20:22:26.821Z,98969.94
2023-03-26T20:24:54.702Z,98971.75
2023-03-26T20:27:22.418Z,98971.47
2023-03-26T20:29:51.618Z,98972.78
2023-03-26T20:32:26.506Z,98968.50
2023-03-26T20:34:54.978Z,98979.41
2023-03-26T20:37:22.584Z,98978.44
2023-03-26T20:39:50.616Z,98973.34
2023-03-26T20:42:18.313Z,98984.06
2023-03-26T20:44:46.904Z,98981.53
2023-03-26T20:47:16.390Z,98992.53
2023-03-26T20:49:43.915Z,98990.22
2023-03-26T20:52:13.516Z,98984.25
2023-03-26T20:54:41.805Z,98999.88
2023-03-26T20:57:11.747Z,98992.75
2023-03-26T20:59:39.353Z,98996.44
2023-03-26T21:02:07.106Z,98996.84
2023-03-26T21:04:35.915Z,99003.19
2023-03-26T21:07:15.155Z,99006.59
2023-03-26T21:09:46.542Z,99010.84
2023-03-26T21:12:18.272Z,99007.66
2023-03-26T21:14:46.626Z,99018.28
2023-03-26T21:17:16.571Z,99012.53
2023-03-26T21:19:46.674Z,99021.41
2023-03-26T21:22:22.653Z,99026.16
2023-03-26T21:25:02.347Z,99026.34
2023-03-26T21:27:33.780Z,99036.28
2023-03-26T21:30:01.861Z,99034.56
2023-03-26T21:32:31.528Z,99041.00
2023-03-26T21:35:01.156Z,99046.13
2023-03-26T21:37:29.187Z,99056.94
2023-03-26T21:39:57.147Z,99059.41
2023-03-26T21:42:26.851Z,99060.22
2023-03-26T21:44:54.938Z,99068.81
2023-03-26T21:47:23.041Z,99063.47
2023-03-26T21:49:50.993Z,99071.88
2023-03-26T21:52:22.547Z,99072.09
2023-03-26T21:54:50.588Z,99078.28
2023-03-26T21:57:30.788Z,99074.38
2023-03-26T22:00:08.378Z,99078.44
2023-03-26T22:02:42.824Z,99083.19
2023-03-26T22:05:14.459Z,99091.34
2023-03-26T22:07:54.181Z,99094.41
2023-03-26T22:10:22.102Z,99097.09
2023-03-26T22:12:49.722Z,99099.25
2023-03-26T22:15:19.000Z,99095.06
2023-03-26T22:17:53.654Z,99106.84
2023-03-26T22:20:25.147Z,99106.97
2023-03-26T22:22:55.052Z,99113.19
2023-03-26T22:25:23.609Z,99115.78
2023-03-26T22:27:51.771Z,99126.59
2023-03-26T22:30:20.619Z,99131.72
2023-03-26T22:32:48.498Z,99127.31
2023-03-26T22:35:16.556Z,99135.09
2023-03-26T22:37:44.365Z,99139.38
2023-03-26T22:40:14.008Z,99144.53
2023-03-26T22:42:41.637Z,99144.97
2023-03-26T22:45:10.162Z,99146.72
2023-03-26T22:47:38.128Z,99157.59
2023-03-26T22:50:07.413Z,99161.00
2023-03-26T22:52:35.478Z,99160.81
2023-03-26T22:55:03.287Z,99169.91
2023-03-26T22:57:32.183Z,99163.16
2023-03-26T23:00:08.199Z,99167.38
2023-03-26T23:02:35.676Z,99172.41
2023-03-26T23:05:03.200Z,99187.38
2023-03-26T23:07:32.254Z,99183.47
2023-03-26T23:09:59.713Z,99186.22
2023-03-26T23:12:27.184Z,99199.53
2023-03-26T23:14:55.956Z,99194.22
2023-03-26T23:17:23.958Z,99200.63
2023-03-26T23:19:51.570Z,99198.53
2023-03-26T23:22:19.297Z,99201.06
2023-03-26T23:24:46.758Z,99210.91
2023-03-26T23:27:14.294Z,99202.69
2023-03-26T23:29:45.708Z,99211.53
2023-03-26T23:32:24.772Z,99208.94
2023-03-26T23:34:53.046Z,99217.06
2023-03-26T23:37:23.181Z,99220.75
2023-03-26T23:39:51.078Z,99220.19
2023-03-26T23:42:29.242Z,99230.22
2023-03-26T23:44:57.461Z,99230.75
2023-03-26T23:47:27.068Z,99233.53
2023-03-26T23:49:54.599Z,99239.91
2023-03-26T23:52:22.102Z,99250.44
2023-03-26T23:54:49.590Z,99250.66
2023-03-26T23:57:18.407Z,99259.75
2023-03-26T23:59:45.959Z,99262.75
